Strona główna
METAR-TAF:

METAR-TAF

Lotnisko :

Penn Valley Airport

Selinsgrove, Pensylwania, Stany Zjednoczone

Szerokość geograficzna: 40-49-09N, Długość geograficzna: 076-51-58W, wysokość: 137 m

Aktualna obserwacja pogody

Raport powstał 17 minut temu, godzina 11:53 UTC
Cisza
Temperatura 24°C
Wilgotność 78%
Ciśnienie 1010 hPa
Widzialność: 16.1 km
Mało chmury na wysokości 4900 ft

METAR: KSEG 251153Z AUTO 00000KT 10SM FEW049 24/20 A2982 RMK AO2 SLP095 60010 70010 T02390200 10239 20217 53019

czas: 08:10 (12:10 UTC)


TAF: brakujący

Obserwacja i prognoza pogody dla ponad 4000 lotnisk (raport METAR i TAF).

Dostępne stacje oznaczono żółtymi i czerwonymi punktami na mapie.

Najedź kursorem aby zobaczyć nazwę stacji.

Kliknij aby zobaczyć obserwacje i prognozy pogody.

Aby zmienić mapę: kliknij na zielony przycisk z czarnym krzyżykiem, aby powiększyć; na zielony przycisk z myślnikiem, aby pomniejszyć; na zielone strzałki, aby przejść do map sąsiednich.


METAR-TAF: